sensor_id;sensor_type;location;lat;lon;timestamp;temperature;humidity
13123;DHT22;6627;50.920;12.050;2022-09-17T00:00:04;11.30;99.90
13123;DHT22;6627;50.920;12.050;2022-09-17T00:02:31;11.40;99.90
13123;DHT22;6627;50.920;12.050;2022-09-17T00:05:07;11.30;99.90
13123;DHT22;6627;50.920;12.050;2022-09-17T00:07:38;11.40;99.90
13123;DHT22;6627;50.920;12.050;2022-09-17T00:10:08;11.40;99.90
13123;DHT22;6627;50.920;12.050;2022-09-17T00:12:55;11.40;99.90
13123;DHT22;6627;50.920;12.050;2022-09-17T00:15:22;11.40;99.90
13123;DHT22;6627;50.920;12.050;2022-09-17T00:17:53;11.40;99.90
13123;DHT22;6627;50.920;12.050;2022-09-17T00:20:26;11.50;99.90
13123;DHT22;6627;50.920;12.050;2022-09-17T00:22:54;11.50;99.90
13123;DHT22;6627;50.920;12.050;2022-09-17T00:25:25;11.50;99.90
13123;DHT22;6627;50.920;12.050;2022-09-17T00:28:12;11.50;99.90
13123;DHT22;6627;50.920;12.050;2022-09-17T00:30:41;11.50;99.90
13123;DHT22;6627;50.920;12.050;2022-09-17T00:33:14;11.50;99.90
13123;DHT22;6627;50.920;12.050;2022-09-17T00:36:02;11.50;99.90
13123;DHT22;6627;50.920;12.050;2022-09-17T00:38:33;11.60;99.90
13123;DHT22;6627;50.920;12.050;2022-09-17T00:41:00;11.50;99.90
13123;DHT22;6627;50.920;12.050;2022-09-17T00:43:36;11.60;99.90
13123;DHT22;6627;50.920;12.050;2022-09-17T00:46:23;11.60;99.90
13123;DHT22;6627;50.920;12.050;2022-09-17T00:48:57;11.60;99.90
13123;DHT22;6627;50.920;12.050;2022-09-17T00:51:52;11.60;99.90
13123;DHT22;6627;50.920;12.050;2022-09-17T00:54:42;11.60;99.90
13123;DHT22;6627;50.920;12.050;2022-09-17T00:57:15;11.60;99.90
13123;DHT22;6627;50.920;12.050;2022-09-17T00:59:42;11.60;99.90
13123;DHT22;6627;50.920;12.050;2022-09-17T01:02:29;11.60;99.90
13123;DHT22;6627;50.920;12.050;2022-09-17T01:05:06;11.60;99.90
13123;DHT22;6627;50.920;12.050;2022-09-17T01:07:52;11.60;99.90
13123;DHT22;6627;50.920;12.050;2022-09-17T01:11:14;11.60;99.90
13123;DHT22;6627;50.920;12.050;2022-09-17T01:14:36;11.60;99.90
13123;DHT22;6627;50.920;12.050;2022-09-17T01:17:21;11.60;99.90
13123;DHT22;6627;50.920;12.050;2022-09-17T01:20:17;11.60;99.90
13123;DHT22;6627;50.920;12.050;2022-09-17T01:23:28;11.60;99.90
13123;DHT22;6627;50.920;12.050;2022-09-17T01:29:56;11.60;99.90
13123;DHT22;6627;50.920;12.050;2022-09-17T01:32:42;11.60;99.90
13123;DHT22;6627;50.920;12.050;2022-09-17T01:35:18;11.70;99.90
13123;DHT22;6627;50.920;12.050;2022-09-17T01:38:10;11.70;99.90
13123;DHT22;6627;50.920;12.050;2022-09-17T01:40:47;11.70;99.90
13123;DHT22;6627;50.920;12.050;2022-09-17T01:43:25;11.70;99.90
13123;DHT22;6627;50.920;12.050;2022-09-17T01:46:23;11.70;99.90
13123;DHT22;6627;50.920;12.050;2022-09-17T01:49:05;11.70;99.90
13123;DHT22;6627;50.920;12.050;2022-09-17T01:51:54;11.70;99.90
13123;DHT22;6627;50.920;12.050;2022-09-17T01:54:27;11.60;99.90
13123;DHT22;6627;50.920;12.050;2022-09-17T01:57:03;11.60;99.90
13123;DHT22;6627;50.920;12.050;2022-09-17T01:59:39;11.50;99.90
13123;DHT22;6627;50.920;12.050;2022-09-17T02:02:24;11.50;99.90
13123;DHT22;6627;50.920;12.050;2022-09-17T02:05:19;11.50;99.90
13123;DHT22;6627;50.920;12.050;2022-09-17T02:07:54;11.50;99.90
13123;DHT22;6627;50.920;12.050;2022-09-17T02:10:27;11.50;99.90
13123;DHT22;6627;50.920;12.050;2022-09-17T02:13:01;11.60;99.90
13123;DHT22;6627;50.920;12.050;2022-09-17T02:15:39;11.60;99.90
13123;DHT22;6627;50.920;12.050;2022-09-17T02:18:14;11.60;99.90
13123;DHT22;6627;50.920;12.050;2022-09-17T02:20:53;11.50;99.90
13123;DHT22;6627;50.920;12.050;2022-09-17T02:23:29;11.50;99.90
13123;DHT22;6627;50.920;12.050;2022-09-17T02:26:04;11.60;99.90
13123;DHT22;6627;50.920;12.050;2022-09-17T02:28:40;11.60;99.90
13123;DHT22;6627;50.920;12.050;2022-09-17T02:31:12;11.60;99.90
13123;DHT22;6627;50.920;12.050;2022-09-17T02:33:41;11.60;99.90
13123;DHT22;6627;50.920;12.050;2022-09-17T02:36:14;11.60;99.90
13123;DHT22;6627;50.920;12.050;2022-09-17T02:38:43;11.60;99.90
13123;DHT22;6627;50.920;12.050;2022-09-17T02:41:15;11.60;99.90
13123;DHT22;6627;50.920;12.050;2022-09-17T02:43:52;11.60;99.90
13123;DHT22;6627;50.920;12.050;2022-09-17T02:50:01;11.60;99.90
13123;DHT22;6627;50.920;12.050;2022-09-17T02:52:55;11.60;99.90
13123;DHT22;6627;50.920;12.050;2022-09-17T02:55:35;11.60;99.90
13123;DHT22;6627;50.920;12.050;2022-09-17T02:58:15;11.60;99.90
13123;DHT22;6627;50.920;12.050;2022-09-17T03:00:50;11.60;99.90
13123;DHT22;6627;50.920;12.050;2022-09-17T03:03:21;11.60;99.90
13123;DHT22;6627;50.920;12.050;2022-09-17T03:05:55;11.60;99.90
13123;DHT22;6627;50.920;12.050;2022-09-17T03:08:29;11.60;99.90
13123;DHT22;6627;50.920;12.050;2022-09-17T03:11:00;11.60;99.90
13123;DHT22;6627;50.920;12.050;2022-09-17T03:13:27;11.70;99.90
13123;DHT22;6627;50.920;12.050;2022-09-17T03:15:54;11.50;99.90
13123;DHT22;6627;50.920;12.050;2022-09-17T03:18:21;11.50;99.90
13123;DHT22;6627;50.920;12.050;2022-09-17T03:20:49;11.40;99.90
13123;DHT22;6627;50.920;12.050;2022-09-17T03:23:16;11.40;99.90
13123;DHT22;6627;50.920;12.050;2022-09-17T03:25:45;11.40;99.90
13123;DHT22;6627;50.920;12.050;2022-09-17T03:28:12;11.30;99.90
13123;DHT22;6627;50.920;12.050;2022-09-17T03:30:40;11.30;99.90
13123;DHT22;6627;50.920;12.050;2022-09-17T03:33:09;11.20;99.90
13123;DHT22;6627;50.920;12.050;2022-09-17T03:35:36;11.30;99.90
13123;DHT22;6627;50.920;12.050;2022-09-17T03:38:04;11.30;99.90
13123;DHT22;6627;50.920;12.050;2022-09-17T03:40:31;11.30;99.90
13123;DHT22;6627;50.920;12.050;2022-09-17T03:42:59;11.30;99.90
13123;DHT22;6627;50.920;12.050;2022-09-17T03:45:26;11.30;99.90
13123;DHT22;6627;50.920;12.050;2022-09-17T03:47:54;11.10;99.90
13123;DHT22;6627;50.920;12.050;2022-09-17T03:50:21;11.30;99.90
13123;DHT22;6627;50.920;12.050;2022-09-17T03:52:49;11.30;99.90
13123;DHT22;6627;50.920;12.050;2022-09-17T03:55:16;11.40;99.90
13123;DHT22;6627;50.920;12.050;2022-09-17T03:57:45;11.40;99.90
13123;DHT22;6627;50.920;12.050;2022-09-17T04:00:14;11.30;99.90
13123;DHT22;6627;50.920;12.050;2022-09-17T04:02:42;11.30;99.90
13123;DHT22;6627;50.920;12.050;2022-09-17T04:05:09;11.20;99.90
13123;DHT22;6627;50.920;12.050;2022-09-17T04:07:38;11.20;99.90
13123;DHT22;6627;50.920;12.050;2022-09-17T04:10:06;11.20;99.90
13123;DHT22;6627;50.920;12.050;2022-09-17T04:12:34;11.10;99.90
13123;DHT22;6627;50.920;12.050;2022-09-17T04:15:02;11.10;99.90
13123;DHT22;6627;50.920;12.050;2022-09-17T04:17:31;11.00;99.90
13123;DHT22;6627;50.920;12.050;2022-09-17T04:19:58;10.80;99.90
13123;DHT22;6627;50.920;12.050;2022-09-17T04:22:26;10.80;99.90
13123;DHT22;6627;50.920;12.050;2022-09-17T04:24:53;10.60;99.90
13123;DHT22;6627;50.920;12.050;2022-09-17T04:27:20;10.60;99.90
13123;DHT22;6627;50.920;12.050;2022-09-17T04:29:47;10.60;99.90
13123;DHT22;6627;50.920;12.050;2022-09-17T04:32:15;10.60;99.90
13123;DHT22;6627;50.920;12.050;2022-09-17T04:34:43;10.50;99.90
13123;DHT22;6627;50.920;12.050;2022-09-17T04:37:10;10.60;99.90
13123;DHT22;6627;50.920;12.050;2022-09-17T04:39:37;10.70;99.90
13123;DHT22;6627;50.920;12.050;2022-09-17T04:42:05;10.60;99.90
13123;DHT22;6627;50.920;12.050;2022-09-17T04:44:32;10.60;99.90
13123;DHT22;6627;50.920;12.050;2022-09-17T04:46:59;10.60;99.90
13123;DHT22;6627;50.920;12.050;2022-09-17T04:49:27;10.60;99.90
13123;DHT22;6627;50.920;12.050;2022-09-17T04:51:57;10.70;99.90
13123;DHT22;6627;50.920;12.050;2022-09-17T04:54:24;10.70;99.90
13123;DHT22;6627;50.920;12.050;2022-09-17T04:56:52;10.70;99.90
13123;DHT22;6627;50.920;12.050;2022-09-17T04:59:19;10.70;99.90
13123;DHT22;6627;50.920;12.050;2022-09-17T05:01:47;10.70;99.90
13123;DHT22;6627;50.920;12.050;2022-09-17T05:04:14;10.70;99.90
13123;DHT22;6627;50.920;12.050;2022-09-17T05:06:41;10.70;99.90
13123;DHT22;6627;50.920;12.050;2022-09-17T05:09:10;10.70;99.90
13123;DHT22;6627;50.920;12.050;2022-09-17T05:11:37;10.70;99.90
13123;DHT22;6627;50.920;12.050;2022-09-17T05:14:04;10.70;99.90
13123;DHT22;6627;50.920;12.050;2022-09-17T05:16:32;10.70;99.90
13123;DHT22;6627;50.920;12.050;2022-09-17T05:19:01;10.70;99.90
13123;DHT22;6627;50.920;12.050;2022-09-17T05:21:29;10.70;99.90
13123;DHT22;6627;50.920;12.050;2022-09-17T05:23:57;10.70;99.90
13123;DHT22;6627;50.920;12.050;2022-09-17T05:26:27;10.70;99.90
13123;DHT22;6627;50.920;12.050;2022-09-17T05:28:55;10.80;99.90
13123;DHT22;6627;50.920;12.050;2022-09-17T05:31:22;10.80;99.90
13123;DHT22;6627;50.920;12.050;2022-09-17T05:33:50;10.80;99.90
13123;DHT22;6627;50.920;12.050;2022-09-17T05:36:17;10.80;99.90
13123;DHT22;6627;50.920;12.050;2022-09-17T05:38:44;10.90;99.90
13123;DHT22;6627;50.920;12.050;2022-09-17T05:41:11;10.90;99.90
13123;DHT22;6627;50.920;12.050;2022-09-17T05:43:43;11.00;99.90
13123;DHT22;6627;50.920;12.050;2022-09-17T05:46:10;10.90;99.90
13123;DHT22;6627;50.920;12.050;2022-09-17T05:48:37;10.90;99.90
13123;DHT22;6627;50.920;12.050;2022-09-17T05:51:04;10.90;99.90
13123;DHT22;6627;50.920;12.050;2022-09-17T05:53:32;10.90;99.90
13123;DHT22;6627;50.920;12.050;2022-09-17T05:55:59;11.00;99.90
13123;DHT22;6627;50.920;12.050;2022-09-17T05:58:27;11.00;99.90
13123;DHT22;6627;50.920;12.050;2022-09-17T06:01:00;11.10;99.90
13123;DHT22;6627;50.920;12.050;2022-09-17T06:03:28;11.10;99.90
13123;DHT22;6627;50.920;12.050;2022-09-17T06:05:56;11.00;99.90
13123;DHT22;6627;50.920;12.050;2022-09-17T06:08:26;11.10;99.90
13123;DHT22;6627;50.920;12.050;2022-09-17T06:10:54;11.10;99.90
13123;DHT22;6627;50.920;12.050;2022-09-17T06:13:21;11.10;99.90
13123;DHT22;6627;50.920;12.050;2022-09-17T06:15:49;11.10;99.90
13123;DHT22;6627;50.920;12.050;2022-09-17T06:18:19;11.20;99.90
13123;DHT22;6627;50.920;12.050;2022-09-17T06:20:52;11.20;99.90
13123;DHT22;6627;50.920;12.050;2022-09-17T06:23:20;11.20;99.90
13123;DHT22;6627;50.920;12.050;2022-09-17T06:25:53;11.20;99.90
13123;DHT22;6627;50.920;12.050;2022-09-17T06:28:22;11.30;99.90
13123;DHT22;6627;50.920;12.050;2022-09-17T06:30:50;11.40;99.90
13123;DHT22;6627;50.920;12.050;2022-09-17T06:33:21;11.40;99.90
13123;DHT22;6627;50.920;12.050;2022-09-17T06:35:55;11.30;99.90
13123;DHT22;6627;50.920;12.050;2022-09-17T06:38:25;11.40;99.90
13123;DHT22;6627;50.920;12.050;2022-09-17T06:40:52;11.50;99.90
13123;DHT22;6627;50.920;12.050;2022-09-17T06:43:20;11.50;99.90
13123;DHT22;6627;50.920;12.050;2022-09-17T06:45:51;11.50;99.90
13123;DHT22;6627;50.920;12.050;2022-09-17T06:48:21;11.60;99.90
13123;DHT22;6627;50.920;12.050;2022-09-17T06:50:49;11.70;99.90
13123;DHT22;6627;50.920;12.050;2022-09-17T06:53:23;11.80;99.90
13123;DHT22;6627;50.920;12.050;2022-09-17T06:55:50;11.90;99.90
13123;DHT22;6627;50.920;12.050;2022-09-17T06:58:17;11.90;99.90
13123;DHT22;6627;50.920;12.050;2022-09-17T07:00:44;11.90;99.90
13123;DHT22;6627;50.920;12.050;2022-09-17T07:03:12;11.90;99.90
13123;DHT22;6627;50.920;12.050;2022-09-17T07:05:42;11.90;99.90
13123;DHT22;6627;50.920;12.050;2022-09-17T07:08:10;11.80;99.90
13123;DHT22;6627;50.920;12.050;2022-09-17T07:10:37;11.70;99.90
13123;DHT22;6627;50.920;12.050;2022-09-17T07:13:04;11.80;99.90
13123;DHT22;6627;50.920;12.050;2022-09-17T07:15:31;11.70;99.90
13123;DHT22;6627;50.920;12.050;2022-09-17T07:17:58;11.70;99.90
13123;DHT22;6627;50.920;12.050;2022-09-17T07:20:27;11.70;99.90
13123;DHT22;6627;50.920;12.050;2022-09-17T07:22:56;11.80;99.90
13123;DHT22;6627;50.920;12.050;2022-09-17T07:25:24;11.80;99.90
13123;DHT22;6627;50.920;12.050;2022-09-17T07:27:52;12.00;99.90
13123;DHT22;6627;50.920;12.050;2022-09-17T07:30:20;12.10;99.90
13123;DHT22;6627;50.920;12.050;2022-09-17T07:32:47;12.20;99.90
13123;DHT22;6627;50.920;12.050;2022-09-17T07:35:14;12.20;99.90
13123;DHT22;6627;50.920;12.050;2022-09-17T07:37:42;12.30;99.90
13123;DHT22;6627;50.920;12.050;2022-09-17T07:40:11;12.30;99.90
13123;DHT22;6627;50.920;12.050;2022-09-17T07:42:38;12.20;99.90
13123;DHT22;6627;50.920;12.050;2022-09-17T07:45:06;12.30;99.90
13123;DHT22;6627;50.920;12.050;2022-09-17T07:47:38;12.20;99.90
13123;DHT22;6627;50.920;12.050;2022-09-17T07:50:07;12.30;99.90
13123;DHT22;6627;50.920;12.050;2022-09-17T07:52:34;12.40;99.90
13123;DHT22;6627;50.920;12.050;2022-09-17T07:55:02;12.40;99.90
13123;DHT22;6627;50.920;12.050;2022-09-17T07:57:30;12.60;99.90
13123;DHT22;6627;50.920;12.050;2022-09-17T07:59:58;12.60;99.90
13123;DHT22;6627;50.920;12.050;2022-09-17T08:02:25;12.80;99.90
13123;DHT22;6627;50.920;12.050;2022-09-17T08:04:53;12.90;99.90
13123;DHT22;6627;50.920;12.050;2022-09-17T08:07:20;13.10;99.90
13123;DHT22;6627;50.920;12.050;2022-09-17T08:09:47;13.00;99.90
13123;DHT22;6627;50.920;12.050;2022-09-17T08:12:15;13.00;99.90
13123;DHT22;6627;50.920;12.050;2022-09-17T08:14:44;13.10;99.90
13123;DHT22;6627;50.920;12.050;2022-09-17T08:17:11;13.00;99.90
13123;DHT22;6627;50.920;12.050;2022-09-17T08:19:38;13.10;99.90
13123;DHT22;6627;50.920;12.050;2022-09-17T08:22:06;13.30;99.90
13123;DHT22;6627;50.920;12.050;2022-09-17T08:24:33;13.30;99.90
13123;DHT22;6627;50.920;12.050;2022-09-17T08:27:00;13.20;99.90
13123;DHT22;6627;50.920;12.050;2022-09-17T08:29:27;12.90;99.90
13123;DHT22;6627;50.920;12.050;2022-09-17T08:31:55;12.70;99.90
13123;DHT22;6627;50.920;12.050;2022-09-17T08:34:22;12.60;99.90
13123;DHT22;6627;50.920;12.050;2022-09-17T08:36:49;12.50;99.90
13123;DHT22;6627;50.920;12.050;2022-09-17T08:39:16;12.70;99.90
13123;DHT22;6627;50.920;12.050;2022-09-17T08:41:51;12.90;99.90
13123;DHT22;6627;50.920;12.050;2022-09-17T08:44:32;13.00;99.90
13123;DHT22;6627;50.920;12.050;2022-09-17T08:47:13;12.80;99.90
13123;DHT22;6627;50.920;12.050;2022-09-17T08:49:48;12.70;99.90
13123;DHT22;6627;50.920;12.050;2022-09-17T08:55:33;12.80;99.90
13123;DHT22;6627;50.920;12.050;2022-09-17T09:01:11;13.00;99.90
13123;DHT22;6627;50.920;12.050;2022-09-17T09:03:58;13.00;99.90
13123;DHT22;6627;50.920;12.050;2022-09-17T09:06:38;13.20;99.90
13123;DHT22;6627;50.920;12.050;2022-09-17T09:09:12;13.30;99.90
13123;DHT22;6627;50.920;12.050;2022-09-17T09:11:42;13.20;99.90
13123;DHT22;6627;50.920;12.050;2022-09-17T09:14:17;13.20;99.90
13123;DHT22;6627;50.920;12.050;2022-09-17T09:16:48;13.20;99.90
13123;DHT22;6627;50.920;12.050;2022-09-17T09:19:23;13.00;99.90
13123;DHT22;6627;50.920;12.050;2022-09-17T09:22:00;12.90;99.90
13123;DHT22;6627;50.920;12.050;2022-09-17T09:24:35;12.80;99.90
13123;DHT22;6627;50.920;12.050;2022-09-17T09:27:15;12.80;99.90
13123;DHT22;6627;50.920;12.050;2022-09-17T09:29:52;12.80;99.90
13123;DHT22;6627;50.920;12.050;2022-09-17T09:32:39;12.80;99.90
13123;DHT22;6627;50.920;12.050;2022-09-17T09:35:20;12.80;99.90
13123;DHT22;6627;50.920;12.050;2022-09-17T09:37:55;12.70;99.90
13123;DHT22;6627;50.920;12.050;2022-09-17T09:40:40;12.70;99.90
13123;DHT22;6627;50.920;12.050;2022-09-17T09:43:15;12.60;99.90
13123;DHT22;6627;50.920;12.050;2022-09-17T09:45:58;12.60;99.90
13123;DHT22;6627;50.920;12.050;2022-09-17T09:48:42;12.60;99.90
13123;DHT22;6627;50.920;12.050;2022-09-17T09:51:29;12.70;99.90
13123;DHT22;6627;50.920;12.050;2022-09-17T09:54:16;12.50;99.90
13123;DHT22;6627;50.920;12.050;2022-09-17T10:48:27;13.60;99.90
13123;DHT22;6627;50.920;12.050;2022-09-17T10:50:59;13.70;99.90
13123;DHT22;6627;50.920;12.050;2022-09-17T10:53:29;13.60;99.90
13123;DHT22;6627;50.920;12.050;2022-09-17T10:56:04;13.50;99.90
13123;DHT22;6627;50.920;12.050;2022-09-17T10:58:48;13.20;99.90
13123;DHT22;6627;50.920;12.050;2022-09-17T11:01:33;13.10;99.90
13123;DHT22;6627;50.920;12.050;2022-09-17T11:04:34;13.20;99.90
13123;DHT22;6627;50.920;12.050;2022-09-17T11:07:32;13.40;99.90
13123;DHT22;6627;50.920;12.050;2022-09-17T11:10:17;13.70;99.90
13123;DHT22;6627;50.920;12.050;2022-09-17T11:13:09;14.00;99.90
13123;DHT22;6627;50.920;12.050;2022-09-17T11:15:59;14.30;99.90
13123;DHT22;6627;50.920;12.050;2022-09-17T11:18:39;14.30;99.90
13123;DHT22;6627;50.920;12.050;2022-09-17T11:24:20;14.30;99.90
13123;DHT22;6627;50.920;12.050;2022-09-17T11:27:16;14.30;99.90
13123;DHT22;6627;50.920;12.050;2022-09-17T11:30:03;14.40;99.90
13123;DHT22;6627;50.920;12.050;2022-09-17T11:35:51;14.90;99.90
13123;DHT22;6627;50.920;12.050;2022-09-17T11:38:29;15.00;99.90
13123;DHT22;6627;50.920;12.050;2022-09-17T11:41:07;15.30;99.90
13123;DHT22;6627;50.920;12.050;2022-09-17T11:43:41;15.40;99.90
13123;DHT22;6627;50.920;12.050;2022-09-17T11:46:16;15.30;99.90
13123;DHT22;6627;50.920;12.050;2022-09-17T13:54:21;12.90;99.90
13123;DHT22;6627;50.920;12.050;2022-09-17T13:57:04;13.20;99.90
13123;DHT22;6627;50.920;12.050;2022-09-17T13:59:37;13.30;99.90
13123;DHT22;6627;50.920;12.050;2022-09-17T14:02:32;13.30;99.90
13123;DHT22;6627;50.920;12.050;2022-09-17T14:05:30;13.20;99.90
13123;DHT22;6627;50.920;12.050;2022-09-17T14:08:10;13.10;99.90
13123;DHT22;6627;50.920;12.050;2022-09-17T14:10:55;13.60;99.90
13123;DHT22;6627;50.920;12.050;2022-09-17T14:13:43;13.80;99.90
13123;DHT22;6627;50.920;12.050;2022-09-17T14:16:33;13.80;99.90
13123;DHT22;6627;50.920;12.050;2022-09-17T14:19:22;13.90;99.90
13123;DHT22;6627;50.920;12.050;2022-09-17T14:21:57;14.30;99.90
13123;DHT22;6627;50.920;12.050;2022-09-17T14:24:33;14.40;99.90
13123;DHT22;6627;50.920;12.050;2022-09-17T14:27:26;14.40;99.90
13123;DHT22;6627;50.920;12.050;2022-09-17T14:30:13;14.50;99.90
13123;DHT22;6627;50.920;12.050;2022-09-17T14:32:48;14.40;99.90
13123;DHT22;6627;50.920;12.050;2022-09-17T14:35:23;14.50;99.90
13123;DHT22;6627;50.920;12.050;2022-09-17T14:37:57;14.50;99.90
13123;DHT22;6627;50.920;12.050;2022-09-17T14:40:31;14.50;99.90
13123;DHT22;6627;50.920;12.050;2022-09-17T14:43:01;14.40;99.90
13123;DHT22;6627;50.920;12.050;2022-09-17T14:45:31;14.50;99.90
13123;DHT22;6627;50.920;12.050;2022-09-17T14:48:28;14.70;99.90
13123;DHT22;6627;50.920;12.050;2022-09-17T14:51:26;14.70;99.90
13123;DHT22;6627;50.920;12.050;2022-09-17T14:54:13;14.80;99.90
13123;DHT22;6627;50.920;12.050;2022-09-17T14:56:58;15.00;99.90
13123;DHT22;6627;50.920;12.050;2022-09-17T14:59:33;15.00;99.90
13123;DHT22;6627;50.920;12.050;2022-09-17T15:02:22;15.10;99.90
13123;DHT22;6627;50.920;12.050;2022-09-17T15:04:56;15.00;99.90
13123;DHT22;6627;50.920;12.050;2022-09-17T15:07:24;14.90;99.90
13123;DHT22;6627;50.920;12.050;2022-09-17T15:09:52;15.00;99.90
13123;DHT22;6627;50.920;12.050;2022-09-17T15:12:27;15.20;99.90
13123;DHT22;6627;50.920;12.050;2022-09-17T15:14:56;15.20;99.90
13123;DHT22;6627;50.920;12.050;2022-09-17T15:17:24;14.80;99.90
13123;DHT22;6627;50.920;12.050;2022-09-17T15:19:54;14.30;99.90
13123;DHT22;6627;50.920;12.050;2022-09-17T15:22:27;14.30;99.90
13123;DHT22;6627;50.920;12.050;2022-09-17T15:25:01;14.10;99.90
13123;DHT22;6627;50.920;12.050;2022-09-17T15:27:35;13.60;99.90
13123;DHT22;6627;50.920;12.050;2022-09-17T15:30:10;13.00;99.90
13123;DHT22;6627;50.920;12.050;2022-09-17T15:32:40;12.60;99.90
13123;DHT22;6627;50.920;12.050;2022-09-17T15:35:32;12.20;99.90
13123;DHT22;6627;50.920;12.050;2022-09-17T15:38:01;12.20;99.90
13123;DHT22;6627;50.920;12.050;2022-09-17T15:40:31;12.00;99.90
13123;DHT22;6627;50.920;12.050;2022-09-17T15:43:11;12.00;99.90
13123;DHT22;6627;50.920;12.050;2022-09-17T15:45:43;11.10;99.90
13123;DHT22;6627;50.920;12.050;2022-09-17T15:48:34;11.30;99.90
13123;DHT22;6627;50.920;12.050;2022-09-17T15:51:11;11.10;99.90
13123;DHT22;6627;50.920;12.050;2022-09-17T15:53:51;11.40;99.90
13123;DHT22;6627;50.920;12.050;2022-09-17T15:56:21;11.30;99.90
13123;DHT22;6627;50.920;12.050;2022-09-17T15:58:55;11.20;99.90
13123;DHT22;6627;50.920;12.050;2022-09-17T16:04:24;10.70;99.90
13123;DHT22;6627;50.920;12.050;2022-09-17T16:09:50;11.00;99.90
13123;DHT22;6627;50.920;12.050;2022-09-17T16:12:20;10.90;99.90
13123;DHT22;6627;50.920;12.050;2022-09-17T16:14:51;11.00;99.90
13123;DHT22;6627;50.920;12.050;2022-09-17T16:17:26;11.10;99.90
13123;DHT22;6627;50.920;12.050;2022-09-17T16:19:58;11.20;99.90
13123;DHT22;6627;50.920;12.050;2022-09-17T16:22:26;11.20;99.90
13123;DHT22;6627;50.920;12.050;2022-09-17T16:25:01;11.00;99.90
13123;DHT22;6627;50.920;12.050;2022-09-17T16:27:30;10.30;99.90
13123;DHT22;6627;50.920;12.050;2022-09-17T16:30:14;10.00;99.90
13123;DHT22;6627;50.920;12.050;2022-09-17T16:32:44;10.00;99.90
13123;DHT22;6627;50.920;12.050;2022-09-17T16:35:12;10.20;99.90
13123;DHT22;6627;50.920;12.050;2022-09-17T16:37:40;10.10;99.90
13123;DHT22;6627;50.920;12.050;2022-09-17T16:40:10;10.30;99.90
13123;DHT22;6627;50.920;12.050;2022-09-17T16:42:38;10.60;99.90
13123;DHT22;6627;50.920;12.050;2022-09-17T16:45:07;10.40;99.90
13123;DHT22;6627;50.920;12.050;2022-09-17T16:47:37;10.30;99.90
13123;DHT22;6627;50.920;12.050;2022-09-17T16:50:07;10.20;99.90
13123;DHT22;6627;50.920;12.050;2022-09-17T16:52:36;10.40;99.90
13123;DHT22;6627;50.920;12.050;2022-09-17T16:55:05;10.70;99.90
13123;DHT22;6627;50.920;12.050;2022-09-17T16:57:33;10.90;99.90
13123;DHT22;6627;50.920;12.050;2022-09-17T17:00:01;11.00;99.90
13123;DHT22;6627;50.920;12.050;2022-09-17T17:02:30;11.10;99.90
13123;DHT22;6627;50.920;12.050;2022-09-17T17:04:59;11.10;99.90
13123;DHT22;6627;50.920;12.050;2022-09-17T17:07:37;11.20;99.90
13123;DHT22;6627;50.920;12.050;2022-09-17T17:10:05;11.10;99.90
13123;DHT22;6627;50.920;12.050;2022-09-17T17:12:34;11.10;99.90
13123;DHT22;6627;50.920;12.050;2022-09-17T17:15:02;11.00;99.90
13123;DHT22;6627;50.920;12.050;2022-09-17T17:17:31;11.00;99.90
13123;DHT22;6627;50.920;12.050;2022-09-17T17:20:02;11.00;99.90
13123;DHT22;6627;50.920;12.050;2022-09-17T17:22:30;11.00;99.90
13123;DHT22;6627;50.920;12.050;2022-09-17T17:24:57;11.00;99.90
13123;DHT22;6627;50.920;12.050;2022-09-17T17:27:24;10.90;99.90
13123;DHT22;6627;50.920;12.050;2022-09-17T17:29:51;10.90;99.90
13123;DHT22;6627;50.920;12.050;2022-09-17T17:32:19;10.90;99.90
13123;DHT22;6627;50.920;12.050;2022-09-17T17:34:46;10.80;99.90
13123;DHT22;6627;50.920;12.050;2022-09-17T17:37:16;10.50;99.90
13123;DHT22;6627;50.920;12.050;2022-09-17T17:39:43;9.90;99.90
13123;DHT22;6627;50.920;12.050;2022-09-17T17:42:10;10.00;99.90
13123;DHT22;6627;50.920;12.050;2022-09-17T17:44:38;9.70;99.90
13123;DHT22;6627;50.920;12.050;2022-09-17T17:47:05;9.50;99.90
13123;DHT22;6627;50.920;12.050;2022-09-17T17:49:33;9.70;99.90
13123;DHT22;6627;50.920;12.050;2022-09-17T17:52:00;9.70;99.90
13123;DHT22;6627;50.920;12.050;2022-09-17T17:54:29;9.60;99.90
13123;DHT22;6627;50.920;12.050;2022-09-17T17:56:56;9.60;99.90
13123;DHT22;6627;50.920;12.050;2022-09-17T17:59:24;9.50;99.90
13123;DHT22;6627;50.920;12.050;2022-09-17T18:01:51;9.30;99.90
13123;DHT22;6627;50.920;12.050;2022-09-17T18:04:18;9.40;99.90
13123;DHT22;6627;50.920;12.050;2022-09-17T18:06:45;9.20;99.90
13123;DHT22;6627;50.920;12.050;2022-09-17T18:09:15;9.20;99.90
13123;DHT22;6627;50.920;12.050;2022-09-17T18:11:43;9.20;99.90
13123;DHT22;6627;50.920;12.050;2022-09-17T18:14:11;9.40;99.90
13123;DHT22;6627;50.920;12.050;2022-09-17T18:16:39;9.70;99.90
13123;DHT22;6627;50.920;12.050;2022-09-17T18:19:09;9.90;99.90
13123;DHT22;6627;50.920;12.050;2022-09-17T18:21:37;9.90;99.90
13123;DHT22;6627;50.920;12.050;2022-09-17T18:24:04;9.90;99.90
13123;DHT22;6627;50.920;12.050;2022-09-17T18:26:31;9.90;99.90
13123;DHT22;6627;50.920;12.050;2022-09-17T18:29:00;9.90;99.90
13123;DHT22;6627;50.920;12.050;2022-09-17T18:31:29;9.90;99.90
13123;DHT22;6627;50.920;12.050;2022-09-17T18:33:59;10.10;99.90
13123;DHT22;6627;50.920;12.050;2022-09-17T18:36:29;10.20;99.90
13123;DHT22;6627;50.920;12.050;2022-09-17T18:38:59;10.20;99.90
13123;DHT22;6627;50.920;12.050;2022-09-17T18:41:28;10.10;99.90
13123;DHT22;6627;50.920;12.050;2022-09-17T18:43:57;10.00;99.90
13123;DHT22;6627;50.920;12.050;2022-09-17T18:46:26;10.00;99.90
13123;DHT22;6627;50.920;12.050;2022-09-17T18:48:55;10.00;99.90
13123;DHT22;6627;50.920;12.050;2022-09-17T18:51:24;9.90;99.90
13123;DHT22;6627;50.920;12.050;2022-09-17T18:53:53;9.90;99.90
13123;DHT22;6627;50.920;12.050;2022-09-17T18:56:23;10.10;99.90
13123;DHT22;6627;50.920;12.050;2022-09-17T18:58:53;10.10;99.90
13123;DHT22;6627;50.920;12.050;2022-09-17T19:01:25;10.20;99.90
13123;DHT22;6627;50.920;12.050;2022-09-17T19:03:55;10.10;99.90
13123;DHT22;6627;50.920;12.050;2022-09-17T19:06:24;10.20;99.90
13123;DHT22;6627;50.920;12.050;2022-09-17T19:08:52;10.20;99.90
13123;DHT22;6627;50.920;12.050;2022-09-17T19:11:20;10.20;99.90
13123;DHT22;6627;50.920;12.050;2022-09-17T19:13:47;10.20;99.90
13123;DHT22;6627;50.920;12.050;2022-09-17T19:16:15;10.20;99.90
13123;DHT22;6627;50.920;12.050;2022-09-17T19:18:44;10.20;99.90
13123;DHT22;6627;50.920;12.050;2022-09-17T19:21:13;10.10;99.90
13123;DHT22;6627;50.920;12.050;2022-09-17T19:23:42;10.10;99.90
13123;DHT22;6627;50.920;12.050;2022-09-17T19:26:12;10.10;99.90
13123;DHT22;6627;50.920;12.050;2022-09-17T19:28:41;10.10;99.90
13123;DHT22;6627;50.920;12.050;2022-09-17T19:31:10;10.20;99.90